createdAt,value
2022-08-26T00:00:41.503Z,11.93
2022-08-26T00:03:22.933Z,11.73
2022-08-26T00:05:54.462Z,11.27
2022-08-26T00:08:22.917Z,11.75
2022-08-26T00:10:52.044Z,11.50
2022-08-26T00:13:23.240Z,12.20
2022-08-26T00:15:55.307Z,11.77
2022-08-26T00:18:27.117Z,12.65
2022-08-26T00:21:06.137Z,12.35
2022-08-26T00:23:39.674Z,12.77
2022-08-26T00:26:11.204Z,11.75
2022-08-26T00:28:43.830Z,12.82
2022-08-26T00:31:13.989Z,12.43
2022-08-26T00:33:44.136Z,13.43
2022-08-26T00:36:20.031Z,12.85
2022-08-26T00:38:52.172Z,13.52
2022-08-26T00:41:23.356Z,12.25
2022-08-26T00:43:53.763Z,11.95
2022-08-26T00:46:36.832Z,13.43
2022-08-26T00:49:24.726Z,13.35
2022-08-26T00:52:01.208Z,13.20
2022-08-26T00:54:35.265Z,14.30
2022-08-26T00:57:16.391Z,12.52
2022-08-26T00:59:53.550Z,13.50
2022-08-26T01:02:24.195Z,13.40
2022-08-26T01:05:01.292Z,14.15
2022-08-26T01:07:36.889Z,14.93
2022-08-26T01:10:19.900Z,14.07
2022-08-26T01:13:08.930Z,14.13
2022-08-26T01:15:51.808Z,14.50
2022-08-26T01:18:27.331Z,14.65
2022-08-26T01:21:20.073Z,14.18
2022-08-26T01:23:57.545Z,16.17
2022-08-26T01:26:43.219Z,14.38
2022-08-26T01:29:23.404Z,14.45
2022-08-26T01:32:05.145Z,14.27
2022-08-26T01:34:43.152Z,14.88
2022-08-26T01:37:25.931Z,14.10
2022-08-26T01:39:57.616Z,14.85
2022-08-26T01:42:30.304Z,14.63
2022-08-26T01:45:02.164Z,14.63
2022-08-26T01:47:34.977Z,14.45
2022-08-26T01:50:27.683Z,15.32
2022-08-26T01:53:19.076Z,15.07
2022-08-26T01:55:55.107Z,15.48
2022-08-26T01:59:02.030Z,14.77
2022-08-26T02:01:35.529Z,14.85
2022-08-26T02:04:24.607Z,15.02
2022-08-26T02:07:04.554Z,15.20
2022-08-26T02:09:41.042Z,15.60
2022-08-26T02:12:14.403Z,14.68
2022-08-26T02:14:54.192Z,13.98
2022-08-26T02:17:30.056Z,14.15
2022-08-26T02:20:01.632Z,15.10
2022-08-26T02:22:32.877Z,14.90
2022-08-26T02:25:21.013Z,14.95
2022-08-26T02:27:52.385Z,15.90
2022-08-26T02:30:26.728Z,15.57
2022-08-26T02:33:06.066Z,14.60
2022-08-26T02:35:37.925Z,14.77
2022-08-26T02:38:34.307Z,16.98
2022-08-26T02:41:08.069Z,15.73
2022-08-26T02:43:41.097Z,15.68
2022-08-26T02:46:11.184Z,16.70
2022-08-26T02:48:43.233Z,17.08
2022-08-26T02:51:14.866Z,16.70
2022-08-26T02:53:44.163Z,17.00
2022-08-26T02:56:13.862Z,16.67
2022-08-26T02:58:42.633Z,16.23
2022-08-26T03:01:27.556Z,16.75
2022-08-26T03:03:58.183Z,16.65
2022-08-26T03:06:29.100Z,16.05
2022-08-26T03:08:57.092Z,17.10
2022-08-26T03:11:32.987Z,15.60
2022-08-26T03:14:05.938Z,16.58
2022-08-26T03:16:39.643Z,15.18
2022-08-26T03:19:11.333Z,16.38
2022-08-26T03:21:41.921Z,17.10
2022-08-26T03:24:14.941Z,16.45
2022-08-26T03:26:52.455Z,17.90
2022-08-26T03:29:42.237Z,16.83
2022-08-26T03:32:11.433Z,16.60
2022-08-26T03:34:46.995Z,17.90
2022-08-26T03:37:19.215Z,17.05
2022-08-26T03:39:49.667Z,17.17
2022-08-26T03:42:21.846Z,18.73
2022-08-26T03:44:55.497Z,17.73
2022-08-26T03:47:26.713Z,18.80
2022-08-26T03:49:56.286Z,18.10
2022-08-26T03:52:28.782Z,17.13
2022-08-26T03:54:58.688Z,17.60
2022-08-26T03:57:25.984Z,18.13
2022-08-26T03:59:58.861Z,17.65
2022-08-26T04:02:26.394Z,18.25
2022-08-26T04:04:53.932Z,19.52
2022-08-26T04:07:24.510Z,18.20
2022-08-26T04:09:58.763Z,18.13
2022-08-26T04:12:30.547Z,17.60
2022-08-26T04:15:05.346Z,17.98
2022-08-26T04:17:42.058Z,18.92
2022-08-26T04:20:16.381Z,17.07
2022-08-26T04:22:51.653Z,17.02
2022-08-26T04:25:24.816Z,18.10
2022-08-26T04:27:56.115Z,17.60
2022-08-26T04:33:00.990Z,18.08
2022-08-26T04:35:32.886Z,17.33
2022-08-26T04:38:07.205Z,18.40
2022-08-26T04:40:54.656Z,18.08
2022-08-26T04:43:25.993Z,17.42
2022-08-26T04:46:03.043Z,16.67
2022-08-26T04:48:34.254Z,16.55
2022-08-26T04:51:07.975Z,16.70
2022-08-26T04:53:39.514Z,16.98
2022-08-26T04:56:11.632Z,16.40
2022-08-26T04:58:41.507Z,17.23
2022-08-26T05:01:11.603Z,16.95
2022-08-26T05:03:42.232Z,17.88
2022-08-26T05:06:14.523Z,17.00
2022-08-26T05:08:44.419Z,17.83
2022-08-26T05:11:16.433Z,16.58
2022-08-26T05:13:48.373Z,16.98
2022-08-26T05:16:17.510Z,17.15
2022-08-26T05:18:49.160Z,17.05
2022-08-26T05:21:28.483Z,17.58
2022-08-26T05:23:59.819Z,17.55
2022-08-26T05:26:33.040Z,17.20
2022-08-26T05:29:12.771Z,16.70
2022-08-26T05:31:46.296Z,17.73
2022-08-26T05:34:19.775Z,17.08
2022-08-26T05:36:51.645Z,16.70
2022-08-26T05:39:24.936Z,17.52
2022-08-26T05:41:54.448Z,16.20
2022-08-26T05:44:27.141Z,16.13
2022-08-26T05:46:55.751Z,16.58
2022-08-26T05:49:26.400Z,16.17
2022-08-26T05:54:31.256Z,16.17
2022-08-26T05:57:03.487Z,15.30
2022-08-26T05:59:34.926Z,16.20
2022-08-26T06:02:12.039Z,15.38
2022-08-26T06:04:48.123Z,15.82
2022-08-26T06:07:20.532Z,17.37
2022-08-26T06:09:52.207Z,16.05
2022-08-26T06:12:23.569Z,17.08
2022-08-26T06:15:00.621Z,16.95
2022-08-26T06:17:33.563Z,16.17
2022-08-26T06:20:09.900Z,17.15
2022-08-26T06:22:57.385Z,16.13
2022-08-26T06:25:39.475Z,16.33
2022-08-26T06:28:10.367Z,17.48
2022-08-26T06:30:45.235Z,16.27
2022-08-26T06:33:14.189Z,16.20
2022-08-26T06:35:49.230Z,15.50
2022-08-26T06:38:20.392Z,16.35
2022-08-26T06:40:53.910Z,15.80
2022-08-26T06:43:29.684Z,16.23
2022-08-26T06:46:10.568Z,18.13
2022-08-26T06:48:42.704Z,15.40
2022-08-26T06:51:23.567Z,15.40
2022-08-26T06:54:01.729Z,15.70
2022-08-26T06:56:41.803Z,16.05
2022-08-26T06:59:18.848Z,16.83
2022-08-26T07:01:50.686Z,16.60
2022-08-26T07:04:37.401Z,16.92
2022-08-26T07:07:08.247Z,15.15
2022-08-26T07:09:43.011Z,17.58
2022-08-26T07:12:14.777Z,15.95
2022-08-26T07:14:48.882Z,16.38
2022-08-26T07:17:20.739Z,16.75
2022-08-26T07:19:57.933Z,15.95
2022-08-26T07:22:30.472Z,15.73
2022-08-26T07:27:33.050Z,17.55
2022-08-26T07:30:06.958Z,16.63
2022-08-26T07:32:44.896Z,16.00
2022-08-26T07:35:15.115Z,16.70
2022-08-26T07:37:46.892Z,14.93
2022-08-26T07:40:19.790Z,15.68
2022-08-26T07:42:49.494Z,16.27
2022-08-26T07:45:21.905Z,16.60
2022-08-26T07:47:55.964Z,16.20
2022-08-26T07:50:49.268Z,15.43
2022-08-26T07:53:16.390Z,15.18
2022-08-26T07:55:51.630Z,15.82
2022-08-26T07:58:25.894Z,15.93
2022-08-26T08:03:38.888Z,16.38
2022-08-26T08:06:10.494Z,15.93
2022-08-26T08:08:44.524Z,15.23
2022-08-26T08:11:17.854Z,15.35
2022-08-26T08:13:47.266Z,15.85
2022-08-26T08:16:46.773Z,13.88
2022-08-26T08:19:16.198Z,13.95
2022-08-26T08:21:45.839Z,15.40
2022-08-26T08:24:17.341Z,15.00
2022-08-26T08:26:47.322Z,15.18
2022-08-26T08:29:16.008Z,15.07
2022-08-26T08:31:56.964Z,15.65
2022-08-26T08:34:31.882Z,15.95
2022-08-26T08:37:10.082Z,15.25
2022-08-26T08:39:46.897Z,14.90
2022-08-26T08:42:41.945Z,15.85
2022-08-26T08:45:47.099Z,14.70
2022-08-26T08:48:53.838Z,13.88
2022-08-26T08:51:42.584Z,14.52
2022-08-26T08:54:14.959Z,13.38
2022-08-26T08:56:54.139Z,14.68
2022-08-26T08:59:38.585Z,14.07
2022-08-26T09:02:20.592Z,13.52
2022-08-26T09:05:15.265Z,13.25
2022-08-26T09:08:06.562Z,12.07
2022-08-26T09:10:53.917Z,13.80
2022-08-26T09:13:27.518Z,12.88
2022-08-26T09:19:41.030Z,12.13
2022-08-26T09:22:10.507Z,11.80
2022-08-26T09:24:48.428Z,11.88
2022-08-26T09:27:50.551Z,12.95
2022-08-26T09:30:28.796Z,12.65
2022-08-26T09:33:19.926Z,10.80
2022-08-26T09:36:00.484Z,10.57
2022-08-26T09:38:34.480Z,10.82
2022-08-26T09:41:08.947Z,10.87
2022-08-26T09:43:39.533Z,9.85
2022-08-26T09:49:36.283Z,9.18
2022-08-26T09:52:26.559Z,9.68
2022-08-26T09:55:12.223Z,10.05
2022-08-26T09:58:02.262Z,9.55
2022-08-26T10:00:59.548Z,10.18
2022-08-26T10:03:36.156Z,9.77
2022-08-26T10:06:27.644Z,8.85
2022-08-26T10:09:03.607Z,8.80
2022-08-26T10:11:54.498Z,8.90
2022-08-26T10:14:50.423Z,9.52
2022-08-26T10:17:50.277Z,8.10
2022-08-26T10:21:07.566Z,9.38
2022-08-26T10:23:50.614Z,8.13
2022-08-26T10:26:45.361Z,8.55
2022-08-26T10:29:36.765Z,8.48
2022-08-26T10:32:50.036Z,7.93
2022-08-26T10:35:23.355Z,8.40
2022-08-26T10:38:04.993Z,7.65
2022-08-26T10:41:09.980Z,7.30
2022-08-26T10:43:47.166Z,7.50
2022-08-26T10:46:31.326Z,7.47
2022-08-26T10:49:10.246Z,6.90
2022-08-26T10:51:56.010Z,7.70
2022-08-26T10:54:46.609Z,7.97
2022-08-26T10:57:22.657Z,7.22
2022-08-26T11:00:53.822Z,7.72
2022-08-26T11:03:46.943Z,8.25
2022-08-26T11:06:30.572Z,7.00
2022-08-26T11:09:04.592Z,7.65
2022-08-26T11:11:47.964Z,6.95
2022-08-26T11:14:28.658Z,7.03
2022-08-26T11:17:02.924Z,7.35
2022-08-26T11:20:00.293Z,6.22
2022-08-26T11:22:47.572Z,7.07
2022-08-26T11:25:21.197Z,6.03
2022-08-26T11:28:01.800Z,6.55
2022-08-26T11:30:44.997Z,6.93
2022-08-26T11:33:51.057Z,6.43
2022-08-26T11:36:56.215Z,5.88
2022-08-26T11:45:48.208Z,5.53
2022-08-26T11:48:31.947Z,4.93
2022-08-26T11:51:15.594Z,5.35
2022-08-26T11:56:35.683Z,5.30
2022-08-26T11:59:13.268Z,5.18
2022-08-26T12:01:54.031Z,5.95
2022-08-26T12:04:35.928Z,5.53
2022-08-26T12:07:11.539Z,5.43
2022-08-26T12:09:56.857Z,6.67
2022-08-26T12:12:41.225Z,6.22
2022-08-26T12:15:23.017Z,6.28
2022-08-26T12:17:54.284Z,5.75
2022-08-26T12:20:59.003Z,5.22
2022-08-26T12:23:50.670Z,5.35
2022-08-26T12:26:40.809Z,5.70
2022-08-26T12:29:28.505Z,5.53
2022-08-26T12:32:18.032Z,4.90
2022-08-26T12:34:51.737Z,4.55
2022-08-26T12:37:23.238Z,6.13
2022-08-26T12:39:53.125Z,5.95
2022-08-26T12:42:44.073Z,8.02
2022-08-26T12:45:14.620Z,5.80
2022-08-26T12:47:44.326Z,7.75
2022-08-26T12:50:31.778Z,5.22
2022-08-26T12:53:25.026Z,5.18
2022-08-26T12:55:58.609Z,5.00
2022-08-26T12:58:40.770Z,4.43
2022-08-26T13:01:14.417Z,6.05
2022-08-26T13:03:49.485Z,5.45
2022-08-26T13:06:32.243Z,5.32
2022-08-26T13:09:38.525Z,4.80
2022-08-26T13:12:09.369Z,5.13
2022-08-26T13:14:40.870Z,5.50
2022-08-26T13:17:11.962Z,4.80
2022-08-26T13:19:43.134Z,4.47
2022-08-26T13:22:27.511Z,5.22
2022-08-26T13:25:00.192Z,4.60
2022-08-26T13:27:29.959Z,5.53
2022-08-26T13:30:02.198Z,6.05
2022-08-26T13:35:07.456Z,6.57
2022-08-26T13:37:36.987Z,6.38
2022-08-26T13:42:53.866Z,5.97
2022-08-26T13:45:29.364Z,5.88
2022-08-26T13:48:01.874Z,5.70
2022-08-26T13:50:38.634Z,6.18
2022-08-26T13:53:09.505Z,5.68
2022-08-26T13:55:40.242Z,5.68
2022-08-26T13:58:13.429Z,6.25
2022-08-26T14:00:41.939Z,5.50
2022-08-26T14:03:15.759Z,5.68
2022-08-26T14:05:47.993Z,5.00
2022-08-26T14:08:18.700Z,5.07
2022-08-26T14:10:52.833Z,5.35
2022-08-26T14:13:23.498Z,5.72
2022-08-26T14:15:56.686Z,5.88
2022-08-26T14:18:41.476Z,5.50
2022-08-26T14:21:16.361Z,5.85
2022-08-26T14:23:48.669Z,5.85
2022-08-26T14:26:28.366Z,7.45
2022-08-26T14:29:01.352Z,4.50
2022-08-26T14:31:35.470Z,3.77
2022-08-26T14:34:07.921Z,4.15
2022-08-26T14:36:38.265Z,3.38
2022-08-26T14:39:10.219Z,3.50
2022-08-26T14:41:55.010Z,4.30
2022-08-26T14:44:35.681Z,4.25
2022-08-26T14:47:12.661Z,5.13
2022-08-26T14:49:44.142Z,4.97
2022-08-26T14:52:14.523Z,5.55
2022-08-26T14:54:45.142Z,5.82
2022-08-26T14:57:18.112Z,5.82
2022-08-26T14:59:50.037Z,5.95
2022-08-26T15:02:27.706Z,6.15
2022-08-26T15:05:04.819Z,6.57
2022-08-26T15:07:43.032Z,7.22
2022-08-26T15:10:17.135Z,6.45
2022-08-26T15:12:48.557Z,6.50
2022-08-26T15:15:20.378Z,6.80
2022-08-26T15:17:52.325Z,6.40
2022-08-26T15:20:21.160Z,6.05
2022-08-26T15:22:54.734Z,6.03
2022-08-26T15:25:27.896Z,5.53
2022-08-26T15:27:55.987Z,6.53
2022-08-26T15:30:29.556Z,6.32
2022-08-26T15:32:59.020Z,6.25
2022-08-26T15:35:33.413Z,7.63
2022-08-26T15:38:07.938Z,6.35
2022-08-26T15:40:42.862Z,5.82
2022-08-26T15:45:58.153Z,7.32
2022-08-26T15:48:31.814Z,8.77
2022-08-26T15:51:03.984Z,8.27
2022-08-26T15:53:34.935Z,8.05
2022-08-26T15:56:06.582Z,8.10
2022-08-26T16:01:15.407Z,7.18
2022-08-26T16:04:01.775Z,7.10
2022-08-26T16:09:03.154Z,5.25
2022-08-26T16:11:32.669Z,5.13
2022-08-26T16:14:00.826Z,4.45
2022-08-26T16:16:33.098Z,5.30
2022-08-26T16:19:07.255Z,5.15
2022-08-26T16:21:41.241Z,5.07
2022-08-26T16:24:13.245Z,6.03
2022-08-26T16:26:46.125Z,5.88
2022-08-26T16:29:27.890Z,5.00
2022-08-26T16:31:59.800Z,5.60
2022-08-26T16:34:32.410Z,4.90
2022-08-26T16:37:02.833Z,6.28
2022-08-26T16:39:33.590Z,5.63
2022-08-26T16:42:08.867Z,6.50
2022-08-26T16:44:44.439Z,5.40
2022-08-26T16:47:24.202Z,5.45
2022-08-26T16:49:56.306Z,5.82
2022-08-26T16:52:31.347Z,5.82
2022-08-26T16:55:04.801Z,6.40
2022-08-26T16:57:32.552Z,6.43
2022-08-26T17:00:08.801Z,6.30
2022-08-26T17:02:39.847Z,10.85
2022-08-26T17:05:11.239Z,5.28
2022-08-26T17:07:42.969Z,5.07
2022-08-26T17:10:15.554Z,8.70
2022-08-26T17:12:45.486Z,5.82
2022-08-26T17:15:16.679Z,6.55
2022-08-26T17:17:47.560Z,7.90
2022-08-26T17:20:19.986Z,8.65
2022-08-26T17:22:55.635Z,8.27
2022-08-26T17:25:30.773Z,8.60
2022-08-26T17:27:59.744Z,8.57
2022-08-26T17:30:34.825Z,7.63
2022-08-26T17:33:10.599Z,8.93
2022-08-26T17:35:42.694Z,9.35
2022-08-26T17:38:13.311Z,6.93
2022-08-26T17:40:45.839Z,7.45
2022-08-26T17:43:19.999Z,7.40
2022-08-26T17:45:50.474Z,7.68
2022-08-26T17:48:24.294Z,9.88
2022-08-26T17:50:56.443Z,8.40
2022-08-26T17:53:26.324Z,11.02
2022-08-26T17:55:57.442Z,9.13
2022-08-26T17:58:30.530Z,5.97
2022-08-26T18:01:06.490Z,6.63
2022-08-26T18:03:37.495Z,7.00
2022-08-26T18:06:14.105Z,7.65
2022-08-26T18:08:50.375Z,10.50
2022-08-26T18:11:26.506Z,11.63
2022-08-26T18:13:56.802Z,13.77
2022-08-26T18:16:25.476Z,11.80
2022-08-26T18:18:56.130Z,13.52
2022-08-26T18:21:29.384Z,12.18
2022-08-26T18:24:00.587Z,12.88
2022-08-26T18:26:38.732Z,12.10
2022-08-26T18:29:11.019Z,12.57
2022-08-26T18:31:41.693Z,11.40
2022-08-26T18:34:15.499Z,16.55
2022-08-26T18:36:50.912Z,20.25
2022-08-26T18:39:24.433Z,27.60
2022-08-26T18:41:58.135Z,16.83
2022-08-26T18:44:29.450Z,12.02
2022-08-26T18:47:01.923Z,15.02
2022-08-26T18:49:35.231Z,17.65
2022-08-26T18:52:04.868Z,11.60
2022-08-26T18:54:35.926Z,10.43
2022-08-26T18:57:05.574Z,12.43
2022-08-26T18:59:37.951Z,12.98
2022-08-26T19:02:08.700Z,9.23
2022-08-26T19:04:42.138Z,8.68
2022-08-26T19:07:13.478Z,13.65
2022-08-26T19:09:47.666Z,21.08
2022-08-26T19:12:22.797Z,21.60
2022-08-26T19:14:56.185Z,18.33
2022-08-26T19:17:24.382Z,14.63
2022-08-26T19:19:56.817Z,12.35
2022-08-26T19:22:27.581Z,11.85
2022-08-26T19:25:08.486Z,11.70
2022-08-26T19:27:39.687Z,10.55
2022-08-26T19:30:12.421Z,10.82
2022-08-26T19:32:43.808Z,12.30
2022-08-26T19:35:16.436Z,13.52
2022-08-26T19:37:51.407Z,31.13
2022-08-26T19:40:23.170Z,16.85
2022-08-26T19:42:55.605Z,16.45
2022-08-26T19:45:25.997Z,18.65
2022-08-26T19:47:56.693Z,14.23
2022-08-26T19:50:32.046Z,18.25
2022-08-26T19:53:05.252Z,15.98
2022-08-26T19:55:36.124Z,16.40
2022-08-26T19:58:05.486Z,13.52
2022-08-26T20:00:42.005Z,12.05
2022-08-26T20:03:14.780Z,13.07
2022-08-26T20:08:26.619Z,10.75
2022-08-26T20:10:58.882Z,32.22
2022-08-26T20:13:26.281Z,29.10
2022-08-26T20:15:58.585Z,14.68
2022-08-26T20:18:49.545Z,11.02
2022-08-26T20:21:29.717Z,15.60
2022-08-26T20:24:06.737Z,24.23
2022-08-26T20:26:41.416Z,20.48
2022-08-26T20:29:13.227Z,21.35
2022-08-26T20:31:41.514Z,12.77
2022-08-26T20:34:15.550Z,13.35
2022-08-26T20:36:45.380Z,11.82
2022-08-26T20:39:18.646Z,17.20
2022-08-26T20:41:46.949Z,15.80
2022-08-26T20:44:20.787Z,17.55
2022-08-26T20:46:51.706Z,17.48
2022-08-26T20:49:24.364Z,17.58
2022-08-26T20:51:54.253Z,19.00
2022-08-26T20:54:28.566Z,19.15
2022-08-26T20:57:01.469Z,20.20
2022-08-26T20:59:31.919Z,30.20
2022-08-26T21:02:00.483Z,21.27
2022-08-26T21:04:30.540Z,15.80
2022-08-26T21:06:59.812Z,13.05
2022-08-26T21:09:30.492Z,15.18
2022-08-26T21:12:02.128Z,15.95
2022-08-26T21:14:31.821Z,12.98
2022-08-26T21:17:03.039Z,12.68
2022-08-26T21:19:36.796Z,12.48
2022-08-26T21:22:05.461Z,11.32
2022-08-26T21:24:35.459Z,11.05
2022-08-26T21:27:04.758Z,10.43
2022-08-26T21:29:37.541Z,11.45
2022-08-26T21:32:07.406Z,10.77
2022-08-26T21:34:40.450Z,11.07
2022-08-26T21:37:13.333Z,11.20
2022-08-26T21:39:51.622Z,11.27
2022-08-26T21:42:22.354Z,12.75
2022-08-26T21:44:52.990Z,10.73
2022-08-26T21:47:23.233Z,9.68
2022-08-26T21:49:53.759Z,12.30
2022-08-26T21:52:22.639Z,10.05
2022-08-26T21:54:56.226Z,9.88
2022-08-26T21:57:36.504Z,9.40
2022-08-26T22:00:12.011Z,10.10
2022-08-26T22:02:42.920Z,10.32
2022-08-26T22:05:13.850Z,12.25
2022-08-26T22:07:48.717Z,10.88
2022-08-26T22:10:25.097Z,9.52
2022-08-26T22:13:04.053Z,10.00
2022-08-26T22:15:39.669Z,10.23
2022-08-26T22:18:09.455Z,11.20
2022-08-26T22:20:39.274Z,10.57
2022-08-26T22:23:11.770Z,9.75
2022-08-26T22:25:43.836Z,10.10
2022-08-26T22:28:13.341Z,10.27
2022-08-26T22:30:45.654Z,11.10
2022-08-26T22:33:16.634Z,10.25
2022-08-26T22:35:53.065Z,9.88
2022-08-26T22:38:26.617Z,9.23
2022-08-26T22:41:12.631Z,8.93
2022-08-26T22:43:43.933Z,9.65
2022-08-26T22:46:31.318Z,10.15
2022-08-26T22:49:02.757Z,9.50
2022-08-26T22:51:32.610Z,8.95
2022-08-26T22:54:02.105Z,9.68
2022-08-26T22:56:33.140Z,10.27
2022-08-26T22:59:02.904Z,10.40
2022-08-26T23:01:45.788Z,9.15
2022-08-26T23:04:19.554Z,9.38
2022-08-26T23:07:01.466Z,10.23
2022-08-26T23:09:34.166Z,9.95
2022-08-26T23:12:11.666Z,10.65
2022-08-26T23:15:07.790Z,10.23
2022-08-26T23:17:40.557Z,10.40
2022-08-26T23:20:10.734Z,10.40
2022-08-26T23:22:41.846Z,9.50
2022-08-26T23:25:11.098Z,9.27
2022-08-26T23:27:48.294Z,9.60
2022-08-26T23:30:48.873Z,8.95
2022-08-26T23:33:20.723Z,9.88
2022-08-26T23:35:53.418Z,10.13
2022-08-26T23:38:31.559Z,10.00
2022-08-26T23:41:05.977Z,10.40
2022-08-26T23:43:36.983Z,10.02
2022-08-26T23:46:04.969Z,9.40
2022-08-26T23:48:35.709Z,10.38
2022-08-26T23:51:22.229Z,9.68
2022-08-26T23:53:49.627Z,11.57
2022-08-26T23:56:19.912Z,11.02
2022-08-26T23:58:53.885Z,11.80
